Time;durP1;ratioP1;P1;durP2;ratioP2;P2;SDS_P1;SDS_P2;PMS_P1;PMS_P2;Temp;Humidity;BMP_temperature;BMP_pressure;BME280_temperature;BME280_humidity;BME280_pressure;Samples;Min_cycle;Max_cycle;Signal;HPM_P1;HPM_P2
2021/05/05 00:01:20;;;;;;;6.25;2.50;;;;;;;17.07;46.71;94340.59;2966769;40;20056;-70
2021/05/05 00:03:22;;;;;;;5.47;2.58;;;;;;;17.10;46.93;94344.66;2965795;40;20093;-71
2021/05/05 00:05:23;;;;;;;4.28;2.45;;;;;;;17.09;46.99;94338.56;2967300;39;20074;-70
2021/05/05 00:07:24;;;;;;;5.28;2.53;;;;;;;17.07;46.91;94332.66;2968019;40;20084;-71
2021/05/05 00:09:26;;;;;;;3.72;2.30;;;;;;;17.07;46.70;94337.16;2971352;39;20414;-70
2021/05/05 00:11:27;;;;;;;3.25;2.05;;;;;;;17.08;46.54;94338.78;2969126;39;20067;-71
2021/05/05 00:13:28;;;;;;;6.10;2.63;;;;;;;17.07;46.71;94332.66;2968975;39;20080;-71
2021/05/05 00:15:29;;;;;;;7.95;2.50;;;;;;;17.07;46.24;94337.16;2967254;39;20397;-69
2021/05/05 00:17:40;;;;;;;4.75;2.72;;;;;;;17.10;46.84;94323.50;2969636;39;20048;-69
2021/05/05 00:19:41;;;;;;;4.32;2.63;;;;;;;17.12;47.31;94319.66;2971442;40;20056;-71
2021/05/05 00:21:42;;;;;;;8.82;3.00;;;;;;;17.08;47.10;94321.06;2970294;39;20101;-71
2021/05/05 00:23:43;;;;;;;5.00;2.50;;;;;;;17.07;47.26;94316.00;2966502;39;20060;-71
2021/05/05 00:25:45;;;;;;;5.18;2.95;;;;;;;17.06;47.20;94319.66;2970905;39;20232;-71
2021/05/05 00:27:46;;;;;;;4.28;2.33;;;;;;;17.08;47.19;94315.78;2973501;39;20289;-70
2021/05/05 00:29:47;;;;;;;3.35;2.15;;;;;;;17.10;46.50;94312.91;2970457;39;20052;-71
2021/05/05 00:31:49;;;;;;;3.75;2.45;;;;;;;17.06;46.20;94315.19;2968038;40;20040;-69
2021/05/05 00:33:50;;;;;;;6.13;2.33;;;;;;;17.07;46.13;94306.22;2967669;40;20059;-70
2021/05/05 00:35:51;;;;;;;2.97;2.13;;;;;;;17.11;46.43;94310.06;2969601;39;20087;-70
2021/05/05 00:37:52;;;;;;;4.45;1.90;;;;;;;17.08;45.98;94315.78;2968902;39;20611;-71
2021/05/05 00:39:55;;;;;;;4.40;2.17;;;;;;;17.11;46.17;94319.84;2971270;39;20660;-71
2021/05/05 00:41:56;;;;;;;3.80;2.00;;;;;;;17.12;46.22;94306.41;2970724;40;20064;-81
2021/05/05 00:43:58;;;;;;;3.30;1.95;;;;;;;17.08;46.15;94307.84;2973350;39;20132;-82
2021/05/05 00:45:59;;;;;;;2.75;1.98;;;;;;;16.98;46.44;94302.16;2971535;39;20060;-83
2021/05/05 00:48:00;;;;;;;4.88;1.92;;;;;;;16.87;46.30;94292.25;2972774;40;20060;-82
2021/05/05 00:50:03;;;;;;;5.55;1.77;;;;;;;16.83;46.37;94283.09;2973194;39;20501;-82
2021/05/05 00:52:05;;;;;;;2.95;2.08;;;;;;;16.79;46.20;94299.31;2970689;39;20099;-83
2021/05/05 00:54:06;;;;;;;5.30;2.58;;;;;;;16.79;46.03;94296.69;2977349;39;20416;-83
2021/05/05 00:56:08;;;;;;;3.42;2.28;;;;;;;16.82;46.06;94295.50;2977089;39;20394;-81
2021/05/05 00:58:09;;;;;;;4.78;2.05;;;;;;;16.84;46.19;94287.34;2974863;40;20362;-83
2021/05/05 01:00:11;;;;;;;3.35;2.15;;;;;;;16.84;46.31;94296.09;2973847;39;20390;-71
2021/05/05 01:02:13;;;;;;;4.07;1.88;;;;;;;16.77;46.29;94288.13;2967856;40;20083;-73
2021/05/05 01:04:14;;;;;;;3.15;2.10;;;;;;;16.79;46.34;94280.81;2968049;40;20060;-70
2021/05/05 01:06:15;;;;;;;7.78;2.25;;;;;;;16.65;46.43;94278.41;2967724;40;20445;-71
2021/05/05 01:08:20;;;;;;;4.55;2.03;;;;;;;16.65;46.66;94278.41;2973346;39;20055;-70
2021/05/05 01:10:21;;;;;;;4.82;2.40;;;;;;;16.64;46.59;94276.78;2969786;39;20107;-70
2021/05/05 01:12:22;;;;;;;4.15;2.13;;;;;;;16.57;46.83;94271.50;2978184;39;20058;-71
2021/05/05 01:14:24;;;;;;;5.07;2.08;;;;;;;16.49;46.82;94288.41;2975523;39;20055;-72
2021/05/05 01:16:25;;;;;;;3.15;1.95;;;;;;;16.38;47.00;94283.75;2973101;39;20391;-72
2021/05/05 01:18:27;;;;;;;2.75;2.10;;;;;;;16.41;47.37;94280.66;2970383;39;20485;-71
2021/05/05 01:20:29;;;;;;;2.35;2.00;;;;;;;16.38;47.60;94281.09;2973193;39;20058;-70
2021/05/05 01:22:30;;;;;;;5.55;2.25;;;;;;;16.41;47.62;94278.03;2967981;40;20362;-71
2021/05/05 01:24:35;;;;;;;4.95;2.00;;;;;;;16.44;47.54;94272.34;2967568;39;20371;-70
2021/05/05 01:26:38;;;;;;;4.10;2.10;;;;;;;16.36;47.79;94262.78;2968931;39;20056;-70
2021/05/05 01:28:41;;;;;;;5.13;2.47;;;;;;;16.33;48.10;94255.28;2973760;39;20153;-69
2021/05/05 01:30:44;;;;;;;4.68;1.92;;;;;;;16.28;48.14;94259.53;2973128;39;20056;-71
2021/05/05 01:32:46;;;;;;;3.00;2.08;;;;;;;16.26;48.56;94259.78;2967900;39;20076;-72
2021/05/05 01:34:48;;;;;;;3.30;2.00;;;;;;;16.23;48.63;94265.44;2971742;39;20070;-69
2021/05/05 01:36:50;;;;;;;4.30;2.28;;;;;;;16.25;48.74;94268.69;2974791;39;20047;-80
2021/05/05 01:38:51;;;;;;;2.97;2.00;;;;;;;16.27;48.68;94269.31;2972177;39;20088;-83
2021/05/05 01:40:52;;;;;;;4.57;2.20;;;;;;;16.23;48.69;94265.44;2972479;39;20064;-80
2021/05/05 01:42:53;;;;;;;3.55;1.98;;;;;;;16.25;48.74;94262.59;2973560;39;20390;-82
2021/05/05 01:44:54;;;;;;;3.08;2.03;;;;;;;16.26;49.01;94277.44;2973393;39;20091;-82
2021/05/05 01:46:57;;;;;;;3.92;2.13;;;;;;;16.26;48.92;94270.34;2973118;39;20060;-78
2021/05/05 01:48:58;;;;;;;4.90;2.67;;;;;;;16.29;48.95;94269.91;2973128;39;20396;-83
2021/05/05 01:51:00;;;;;;;4.95;2.00;;;;;;;16.17;49.29;94275.03;2974785;40;20060;-84
2021/05/05 01:53:01;;;;;;;2.75;2.10;;;;;;;16.18;49.38;94267.91;2974942;39;20082;-81
2021/05/05 01:55:03;;;;;;;4.50;2.33;;;;;;;16.25;49.44;94273.19;2977229;39;20116;-85
2021/05/05 01:57:23;;;;;;;3.78;2.40;;;;;;;16.26;49.51;94274.78;2972218;39;20063;-82
2021/05/05 01:59:24;;;;;;;5.30;2.20;;;;;;;16.31;49.55;94265.25;2971064;39;20048;-82
2021/05/05 02:01:26;;;;;;;3.28;2.50;;;;;;;16.34;49.41;94261.38;2975994;39;20052;-82
2021/05/05 02:03:27;;;;;;;4.30;2.13;;;;;;;16.38;49.34;94266.03;2973037;39;20127;-81
2021/05/05 02:05:28;;;;;;;4.25;2.47;;;;;;;16.40;49.33;94260.56;2970604;39;20044;-82
2021/05/05 02:07:30;;;;;;;4.00;2.33;;;;;;;16.43;49.34;94270.72;2975937;39;20064;-85
2021/05/05 02:09:31;;;;;;;3.00;2.22;;;;;;;16.43;49.47;94260.13;2974342;39;20092;-83
2021/05/05 02:11:32;;;;;;;2.70;2.10;;;;;;;16.39;49.34;94253.66;2975259;39;20059;-82
2021/05/05 02:13:33;;;;;;;3.42;2.67;;;;;;;16.35;49.77;94253.25;2972414;39;20054;-80
2021/05/05 02:15:34;;;;;;;4.00;2.50;;;;;;;16.28;50.25;94249.81;2974125;40;20044;-81
2021/05/05 02:17:37;;;;;;;3.45;2.17;;;;;;;16.21;50.56;94251.63;2970092;39;20454;-81
2021/05/05 02:19:38;;;;;;;4.80;2.63;;;;;;;16.18;50.79;94244.13;2976597;39;20050;-81
2021/05/05 02:21:39;;;;;;;3.08;2.60;;;;;;;16.16;50.66;94246.16;2976146;39;20083;-81
2021/05/05 02:23:41;;;;;;;4.47;2.72;;;;;;;16.19;50.61;94251.00;2971461;39;20058;-82
2021/05/05 02:25:42;;;;;;;4.07;2.42;;;;;;;16.20;50.81;94247.38;2968064;39;20068;-82
2021/05/05 02:27:44;;;;;;;5.25;2.60;;;;;;;16.22;50.69;94250.63;2970828;39;20053;-82
2021/05/05 02:29:45;;;;;;;9.15;2.63;;;;;;;16.21;51.13;94243.69;2974100;39;20504;-82
2021/05/05 02:31:48;;;;;;;3.35;2.78;;;;;;;16.22;50.83;94247.97;2968212;39;20146;-83
2021/05/05 02:33:49;;;;;;;3.80;2.80;;;;;;;16.22;51.44;94239.22;2978261;39;20175;-81
2021/05/05 02:35:51;;;;;;;7.00;2.65;;;;;;;16.24;51.05;94237.19;2976714;39;20416;-81
2021/05/05 02:37:52;;;;;;;7.82;2.90;;;;;;;16.24;51.14;94247.75;2972094;39;20053;-82
2021/05/05 02:39:54;;;;;;;4.95;2.83;;;;;;;16.24;51.15;94253.88;2969125;40;20084;-82
2021/05/05 02:41:55;;;;;;;3.72;2.88;;;;;;;15.95;52.31;94244.53;2974578;39;20048;-82
2021/05/05 02:43:56;;;;;;;5.75;3.75;;;;;;;15.91;52.20;94246.75;2973678;39;20060;-83
2021/05/05 02:45:58;;;;;;;6.43;3.05;;;;;;;15.99;52.17;94247.56;2971001;40;20098;-82
2021/05/05 02:47:59;;;;;;;3.65;3.33;;;;;;;16.07;51.75;94250.03;2971882;39;20043;-83
2021/05/05 02:50:00;;;;;;;4.30;2.85;;;;;;;16.11;51.82;94251.22;2971413;39;20489;-82
2021/05/05 02:52:02;;;;;;;7.50;2.90;;;;;;;15.80;52.83;94247.34;2970703;40;20051;-82
2021/05/05 02:54:04;;;;;;;6.32;2.95;;;;;;;15.81;52.83;94245.53;2972745;39;20123;-82
2021/05/05 02:56:05;;;;;;;5.47;2.85;;;;;;;15.80;53.20;94236.00;2974977;39;20387;-83
2021/05/05 02:58:06;;;;;;;5.20;2.88;;;;;;;15.81;53.21;94235.78;2971446;40;20438;-81
2021/05/05 03:00:10;;;;;;;4.47;3.17;;;;;;;15.83;53.09;94236.41;2972531;40;20087;-82
2021/05/05 03:02:11;;;;;;;3.88;2.95;;;;;;;15.87;52.71;94234.16;2971670;39;20093;-80
2021/05/05 03:04:13;;;;;;;8.25;3.10;;;;;;;15.89;52.68;94237.41;2969081;40;20371;-83
2021/05/05 03:06:14;;;;;;;5.32;3.40;;;;;;;15.89;53.00;94243.50;2970296;39;20125;-81
2021/05/05 03:08:17;;;;;;;4.18;2.70;;;;;;;15.88;53.23;94239.25;2971165;39;20056;-83
2021/05/05 03:10:19;;;;;;;5.60;2.83;;;;;;;15.87;53.09;94236.78;2971496;40;20067;-83
2021/05/05 03:12:20;;;;;;;6.70;3.55;;;;;;;15.80;53.17;94244.72;2968921;39;20055;-81
2021/05/05 03:14:25;;;;;;;4.65;2.90;;;;;;;15.73;53.59;94236.78;2968650;40;20137;-83
2021/05/05 03:16:27;;;;;;;13.55;10.13;;;;;;;15.68;53.98;94238.38;2974972;39;20127;-81
2021/05/05 03:18:28;;;;;;;17.33;11.52;;;;;;;15.72;54.46;94242.25;2970358;39;20063;-82
2021/05/05 03:20:30;;;;;;;4.32;3.63;;;;;;;15.79;53.83;94243.09;2972774;39;20436;-83
2021/05/05 03:22:31;;;;;;;5.70;3.25;;;;;;;15.86;53.57;94243.09;2972905;39;20080;-70
2021/05/05 03:24:33;;;;;;;3.75;2.83;;;;;;;15.67;53.54;94232.28;2969765;39;20121;-70
2021/05/05 03:26:35;;;;;;;4.50;3.40;;;;;;;15.42;54.36;94229.41;2966146;40;20060;-70
2021/05/05 03:28:36;;;;;;;3.65;2.92;;;;;;;15.48;54.20;94246.25;2968804;40;20051;-70
2021/05/05 03:30:37;;;;;;;5.72;3.33;;;;;;;15.60;54.05;94244.66;2975436;39;20388;-71
2021/05/05 03:32:39;;;;;;;3.60;3.15;;;;;;;15.53;54.03;94234.09;2972148;39;20056;-71
2021/05/05 03:34:40;;;;;;;4.25;3.28;;;;;;;15.54;54.24;94240.19;2967128;40;20059;-71
2021/05/05 03:36:41;;;;;;;6.25;3.35;;;;;;;15.32;54.87;94240.34;2972789;39;20085;-70
2021/05/05 03:38:43;;;;;;;5.07;3.15;;;;;;;15.32;55.19;94245.63;2973922;39;20088;-71
2021/05/05 03:40:44;;;;;;;5.75;3.58;;;;;;;15.40;55.07;94242.00;2975082;39;20344;-70
2021/05/05 03:42:45;;;;;;;5.95;3.60;;;;;;;15.20;55.37;94246.41;2968582;39;20052;-70
2021/05/05 03:44:47;;;;;;;4.03;3.42;;;;;;;15.10;55.78;94244.13;2966564;40;20329;-71
2021/05/05 03:46:48;;;;;;;4.00;3.00;;;;;;;14.78;56.46;94240.34;2971864;39;20075;-70
2021/05/05 03:48:49;;;;;;;8.43;3.70;;;;;;;14.73;57.06;94244.41;2967542;39;20492;-70
2021/05/05 03:50:52;;;;;;;9.30;3.63;;;;;;;14.89;56.71;94247.72;2966100;40;20044;-70
2021/05/05 03:52:53;;;;;;;6.75;3.97;;;;;;;15.11;56.20;94251.84;2965163;40;20125;-72
2021/05/05 03:54:54;;;;;;;11.30;3.78;;;;;;;15.22;55.96;94231.19;2972074;39;20071;-71
2021/05/05 03:56:55;;;;;;;9.00;3.90;;;;;;;15.27;55.69;94247.22;2969986;39;20278;-70
2021/05/05 03:58:57;;;;;;;6.88;4.18;;;;;;;15.36;55.84;94256.59;2969272;39;20063;-71
2021/05/05 04:00:59;;;;;;;6.32;3.80;;;;;;;15.41;55.80;94251.53;2969011;39;20414;-70
2021/05/05 04:03:00;;;;;;;6.55;3.85;;;;;;;15.35;55.96;94260.25;2966051;40;20088;-69
2021/05/05 04:05:02;;;;;;;7.80;4.07;;;;;;;15.41;55.48;94261.28;2962223;40;20212;-70
2021/05/05 04:07:05;;;;;;;8.02;4.40;;;;;;;15.34;56.48;94261.28;2968091;40;20084;-83
2021/05/05 04:09:07;;;;;;;8.52;4.10;;;;;;;15.10;57.02;94255.50;2969349;40;20119;-83
2021/05/05 04:11:08;;;;;;;6.43;4.25;;;;;;;15.02;57.17;94255.69;2973367;39;20477;-82
2021/05/05 04:13:09;;;;;;;7.47;3.72;;;;;;;15.10;57.19;94259.94;2975329;40;20087;-82
2021/05/05 04:15:28;;;;;;;7.07;4.20;;;;;;;15.05;57.49;94260.56;2980363;39;20326;-82
2021/05/05 04:17:47;;;;;;;5.55;3.88;;;;;;;15.07;57.59;94260.34;2969092;39;20047;-83
2021/05/05 04:20:07;;;;;;;8.00;4.75;;;;;;;15.09;57.97;94258.34;2970814;39;20503;-82
2021/05/05 04:22:27;;;;;;;8.07;4.47;;;;;;;15.15;57.37;94255.72;2974860;39;20065;-82
2021/05/05 04:24:46;;;;;;;6.35;4.55;;;;;;;15.29;57.65;94255.75;2969170;40;20084;-84
2021/05/05 04:26:48;;;;;;;7.35;4.30;;;;;;;15.36;57.23;94249.50;2974378;39;20087;-83
2021/05/05 04:28:50;;;;;;;7.50;4.18;;;;;;;15.49;57.15;94258.47;2972359;40;20067;-85
2021/05/05 04:30:51;;;;;;;7.60;4.45;;;;;;;15.60;56.77;94260.50;2973781;39;20056;-80
2021/05/05 04:32:52;;;;;;;8.75;5.07;;;;;;;15.51;57.09;94261.72;2974559;39;20067;-82
2021/05/05 04:34:54;;;;;;;8.18;4.38;;;;;;;15.22;57.58;94258.38;2974533;39;20059;-80
2021/05/05 04:36:55;;;;;;;7.43;4.82;;;;;;;15.25;57.92;94257.16;2968703;39;20382;-82
2021/05/05 04:38:59;;;;;;;8.20;5.20;;;;;;;15.11;58.48;94254.50;2964745;40;20088;-83
2021/05/05 04:41:01;;;;;;;5.95;4.70;;;;;;;14.65;59.70;94264.84;2970969;39;20052;-82
2021/05/05 04:43:02;;;;;;;9.07;4.82;;;;;;;14.73;59.96;94257.59;2966816;40;20048;-82
2021/05/05 04:45:05;;;;;;;8.10;5.07;;;;;;;14.67;60.47;94261.00;2975843;39;20078;-84
2021/05/05 04:47:06;;;;;;;7.63;5.22;;;;;;;14.78;59.94;94258.81;2969052;39;20166;-81
2021/05/05 04:49:08;;;;;;;8.02;5.10;;;;;;;14.55;60.58;94257.28;2973982;39;20063;-83
2021/05/05 04:51:09;;;;;;;10.95;4.82;;;;;;;14.70;60.47;94265.06;2976553;39;20072;-81
2021/05/05 04:53:10;;;;;;;9.77;5.75;;;;;;;14.85;60.01;94262.31;2976582;39;20092;-83
2021/05/05 04:55:12;;;;;;;8.68;5.50;;;;;;;14.90;59.85;94267.78;2971167;39;20107;-83
2021/05/05 04:57:14;;;;;;;9.10;5.90;;;;;;;15.02;59.54;94268.88;2969522;40;20272;-81
2021/05/05 04:59:16;;;;;;;12.50;5.65;;;;;;;15.22;58.92;94266.28;2977105;39;20055;-84
2021/05/05 05:01:17;;;;;;;10.30;6.22;;;;;;;15.37;58.60;94271.41;2972474;39;20068;-81
2021/05/05 05:03:18;;;;;;;8.13;5.60;;;;;;;15.55;57.93;94270.84;2971889;39;20114;-83
2021/05/05 05:05:22;;;;;;;9.70;6.28;;;;;;;15.67;57.57;94269.25;2971899;40;20051;-82
2021/05/05 05:07:23;;;;;;;9.32;5.88;;;;;;;15.67;57.48;94273.72;2971406;40;20131;-81
2021/05/05 05:09:24;;;;;;;7.88;6.35;;;;;;;15.70;57.49;94273.31;2973005;40;20055;-83
2021/05/05 05:11:26;;;;;;;7.25;5.80;;;;;;;15.71;57.29;94267.03;2979236;39;20060;-83
2021/05/05 05:13:27;;;;;;;8.38;5.80;;;;;;;15.70;57.46;94276.78;2975088;39;20056;-81
2021/05/05 05:15:28;;;;;;;9.75;5.97;;;;;;;15.77;57.68;94276.81;2973178;40;20052;-81
2021/05/05 05:17:29;;;;;;;13.18;7.03;;;;;;;15.77;57.55;94268.91;2973911;39;20345;-81
2021/05/05 05:19:31;;;;;;;11.65;6.63;;;;;;;15.67;57.51;94269.25;2973298;39;20063;-81
2021/05/05 05:21:32;;;;;;;13.02;7.10;;;;;;;15.68;57.91;94273.53;2968663;40;20051;-85
2021/05/05 05:23:34;;;;;;;9.25;5.70;;;;;;;15.81;57.61;94275.41;2974955;39;20091;-82
2021/05/05 05:25:35;;;;;;;11.95;6.20;;;;;;;16.03;57.00;94260.19;2970438;39;20045;-82
2021/05/05 05:27:37;;;;;;;11.13;6.88;;;;;;;15.94;56.88;94259.56;2972208;39;20084;-82
2021/05/05 05:29:39;;;;;;;14.18;7.53;;;;;;;15.39;58.57;94263.31;2967825;40;20149;-83
2021/05/05 05:31:40;;;;;;;14.20;7.32;;;;;;;15.38;59.02;94273.06;2976377;39;20064;-83
2021/05/05 05:33:41;;;;;;;11.32;6.20;;;;;;;15.40;58.93;94278.94;2971757;39;20064;-81
2021/05/05 05:35:43;;;;;;;10.35;6.97;;;;;;;15.39;58.79;94277.31;2977525;39;20052;-83
2021/05/05 05:37:44;;;;;;;10.80;7.63;;;;;;;15.31;59.16;94283.56;2973816;39;20606;-83
2021/05/05 05:39:46;;;;;;;12.07;7.53;;;;;;;15.35;58.98;94282.16;2969095;40;20057;-85
2021/05/05 05:41:47;;;;;;;11.13;7.75;;;;;;;15.55;58.21;94284.88;2970632;39;20049;-83
2021/05/05 05:43:48;;;;;;;12.32;8.13;;;;;;;15.80;57.53;94281.69;2973707;40;20055;-82
2021/05/05 05:45:50;;;;;;;20.48;11.45;;;;;;;15.66;57.70;94293.19;2969789;40;20046;-82
2021/05/05 05:47:51;;;;;;;16.65;11.13;;;;;;;15.47;58.41;94292.97;2973505;39;20058;-84
2021/05/05 05:49:52;;;;;;;21.70;13.43;;;;;;;15.51;58.26;94288.94;2970291;40;20461;-83
2021/05/05 05:51:53;;;;;;;35.85;21.13;;;;;;;15.64;58.04;94293.44;2970990;39;20072;-84
2021/05/05 05:53:56;;;;;;;17.83;11.32;;;;;;;15.81;58.06;94298.34;2969754;40;20076;-82
2021/05/05 05:55:57;;;;;;;17.10;9.07;;;;;;;16.03;57.00;94302.44;2975002;40;20428;-83
2021/05/05 05:57:58;;;;;;;17.85;8.52;;;;;;;16.16;56.65;94309.56;2971352;40;20067;-81
2021/05/05 06:00:00;;;;;;;11.05;7.95;;;;;;;16.31;56.34;94318.09;2969400;40;20044;-83
2021/05/05 06:02:01;;;;;;;15.70;9.23;;;;;;;16.56;55.54;94322.75;2973137;39;20142;-85
2021/05/05 06:04:03;;;;;;;12.70;8.48;;;;;;;16.65;55.32;94312.78;2976964;39;20381;-83
2021/05/05 06:06:04;;;;;;;9.85;7.80;;;;;;;16.29;56.05;94308.75;2971600;40;20064;-84
2021/05/05 06:08:06;;;;;;;11.52;7.70;;;;;;;16.34;56.23;94309.75;2971174;40;20134;-83
2021/05/05 06:10:09;;;;;;;11.63;7.57;;;;;;;16.48;56.20;94307.13;2976412;39;20064;-83
2021/05/05 06:12:10;;;;;;;9.13;6.80;;;;;;;16.68;55.20;94299.97;2973958;40;20084;-85
2021/05/05 06:14:13;;;;;;;10.32;7.90;;;;;;;16.64;55.10;94297.94;2974173;39;20069;-83
2021/05/05 06:16:14;;;;;;;8.45;6.93;;;;;;;16.66;55.11;94294.06;2969628;40;20055;-82
2021/05/05 06:18:16;;;;;;;11.27;7.25;;;;;;;16.55;55.29;94294.69;2976557;40;20109;-82
2021/05/05 06:20:18;;;;;;;8.07;6.68;;;;;;;16.46;56.08;94288.81;2981509;39;20055;-84
2021/05/05 06:22:19;;;;;;;12.43;6.72;;;;;;;16.23;56.39;94291.06;2974536;39;20050;-84
2021/05/05 06:24:20;;;;;;;10.05;6.30;;;;;;;15.92;57.25;94289.84;2978405;40;20052;-84
2021/05/05 06:26:22;;;;;;;11.43;7.82;;;;;;;15.70;58.11;94281.22;2978401;39;20051;-81
2021/05/05 06:28:23;;;;;;;9.70;7.20;;;;;;;15.87;57.86;94279.84;2970034;40;20044;-82
2021/05/05 06:30:25;;;;;;;10.00;6.88;;;;;;;16.02;57.43;94278.88;2972751;40;20455;-81
2021/05/05 06:32:26;;;;;;;12.50;6.88;;;;;;;15.90;56.95;94276.84;2977325;39;20056;-84
2021/05/05 06:34:27;;;;;;;9.55;6.45;;;;;;;15.80;57.46;94280.88;2976219;39;20425;-82
2021/05/05 06:36:29;;;;;;;10.93;6.78;;;;;;;15.61;58.05;94280.59;2972916;39;20052;-83
2021/05/05 06:38:30;;;;;;;8.07;7.03;;;;;;;15.84;57.69;94280.28;2969153;40;20060;-82
2021/05/05 06:40:31;;;;;;;11.57;7.32;;;;;;;16.00;57.04;94280.91;2979973;39;20420;-82
2021/05/05 06:42:33;;;;;;;7.63;6.32;;;;;;;16.07;56.55;94281.72;2977079;39;20078;-82
2021/05/05 06:44:34;;;;;;;8.02;5.90;;;;;;;16.17;56.27;94282.13;2973290;39;20345;-83
2021/05/05 06:46:42;;;;;;;8.38;6.30;;;;;;;16.05;56.53;94279.28;2975557;39;20123;-82
2021/05/05 06:48:44;;;;;;;12.13;6.05;;;;;;;16.17;56.06;94280.31;2978792;39;20055;-83
2021/05/05 06:50:45;;;;;;;9.68;6.10;;;;;;;16.23;56.18;94276.03;2975829;39;20047;-82
2021/05/05 06:52:46;;;;;;;11.95;5.72;;;;;;;16.08;56.64;94275.41;2972272;39;20330;-81
2021/05/05 06:54:48;;;;;;;6.53;5.65;;;;;;;16.03;56.67;94272.59;2976072;39;20084;-82
2021/05/05 06:56:49;;;;;;;7.90;5.07;;;;;;;16.34;55.92;94264.00;2974454;39;20052;-84
2021/05/05 06:58:51;;;;;;;11.02;5.95;;;;;;;16.38;55.91;94262.59;2965861;40;20064;-82
2021/05/05 07:00:52;;;;;;;7.47;5.75;;;;;;;16.50;55.23;94255.66;2973949;40;20052;-84
2021/05/05 07:02:53;;;;;;;9.25;5.20;;;;;;;16.26;56.00;94254.47;2971342;39;20092;-82
2021/05/05 07:04:54;;;;;;;9.38;4.85;;;;;;;16.61;55.35;94251.56;2976103;39;20100;-82
2021/05/05 07:06:55;;;;;;;11.65;5.22;;;;;;;17.00;54.66;94255.16;2973426;39;20040;-83
2021/05/05 07:09:08;;;;;;;8.88;5.15;;;;;;;17.05;53.05;94255.31;2972691;39;20054;-84
2021/05/05 07:11:09;;;;;;;6.00;4.78;;;;;;;16.77;53.40;94250.31;2973346;39;20079;-84
2021/05/05 07:13:10;;;;;;;13.10;4.75;;;;;;;17.01;53.21;94248.00;2968944;39;20421;-82
2021/05/05 07:15:12;;;;;;;8.18;5.05;;;;;;;17.22;52.65;94244.25;2971872;39;20425;-82
2021/05/05 07:17:14;;;;;;;8.18;4.65;;;;;;;17.17;52.63;94245.72;2974620;39;20084;-83
2021/05/05 07:19:16;;;;;;;8.55;4.45;;;;;;;17.44;52.21;94248.22;2974477;39;20057;-83
2021/05/05 07:21:18;;;;;;;10.50;5.70;;;;;;;17.68;51.69;94248.47;2979122;39;21326;-86
2021/05/05 07:23:19;;;;;;;15.88;5.57;;;;;;;17.92;51.39;94252.25;2974244;39;20055;-83
2021/05/05 07:25:20;;;;;;;9.07;4.35;;;;;;;17.86;51.31;94256.56;2973039;39;20047;-85
2021/05/05 07:27:22;;;;;;;5.78;3.67;;;;;;;17.77;51.67;94250.66;2972462;40;20051;-82
2021/05/05 07:29:23;;;;;;;6.10;4.70;;;;;;;17.77;51.57;94242.72;2970467;39;20067;-84
2021/05/05 07:31:24;;;;;;;6.15;4.03;;;;;;;17.72;51.64;94236.44;2974852;39;20340;-82
2021/05/05 07:33:26;;;;;;;8.15;4.15;;;;;;;17.08;53.39;94236.38;2974372;39;20048;-84
2021/05/05 07:35:27;;;;;;;5.63;4.07;;;;;;;17.25;52.75;94239.38;2971631;39;20089;-82
2021/05/05 07:38:06;;;;;;;8.23;4.15;;;;;;;17.45;52.03;94238.44;2970720;40;20127;-84
2021/05/05 07:48:58;;;;;;;8.52;4.22;;;;;;;17.57;50.88;94218.19;2972281;39;20056;-83
2021/05/05 07:50:59;;;;;;;8.20;4.40;;;;;;;17.17;51.91;94221.09;2967959;40;20044;-85
2021/05/05 07:53:00;;;;;;;7.85;4.80;;;;;;;17.18;51.84;94220.84;2969088;40;20063;-81
2021/05/05 07:55:02;;;;;;;11.63;4.10;;;;;;;17.47;50.72;94216.03;2967567;40;20056;-83
2021/05/05 07:57:04;;;;;;;7.32;3.83;;;;;;;17.86;49.18;94224.75;2975705;39;20055;-84
2021/05/05 07:59:05;;;;;;;6.65;4.05;;;;;;;17.95;49.21;94230.59;2968874;40;20162;-83
2021/05/05 08:01:05;;;;;;;9.73;4.32;;;;;;;17.96;49.12;94234.84;2972626;40;20080;-83
2021/05/05 08:03:07;;;;;;;10.27;5.43;;;;;;;18.00;49.49;94238.69;2976005;39;20059;-85
2021/05/05 08:05:09;;;;;;;6.28;4.53;;;;;;;17.73;49.19;94232.78;2974287;40;20052;-83
2021/05/05 08:07:10;;;;;;;9.35;4.00;;;;;;;17.65;50.14;94225.06;2973716;39;20067;-82
2021/05/05 08:09:12;;;;;;;11.68;5.40;;;;;;;17.79;49.71;94230.06;2974260;39;20052;-82
2021/05/05 08:11:13;;;;;;;7.40;4.15;;;;;;;18.11;48.48;94221.28;2977963;39;20077;-82
2021/05/05 08:13:14;;;;;;;8.30;3.53;;;;;;;18.48;48.44;94216.88;2970229;40;20064;-81
2021/05/05 08:15:15;;;;;;;6.28;3.47;;;;;;;18.91;47.16;94213.38;2972222;40;20044;-82
2021/05/05 08:17:19;;;;;;;8.10;4.25;;;;;;;19.09;46.68;94195.81;2970300;39;20469;-84
2021/05/05 08:19:21;;;;;;;5.43;3.50;;;;;;;19.41;45.92;94191.06;2978220;39;20183;-84
2021/05/05 08:21:23;;;;;;;14.38;3.70;;;;;;;19.57;45.04;94195.72;2970219;40;20129;-83
2021/05/05 08:23:25;;;;;;;5.95;3.63;;;;;;;19.55;45.60;94194.34;2975004;39;20048;-83
2021/05/05 08:25:26;;;;;;;5.97;3.42;;;;;;;19.26;45.21;94190.69;2979762;39;20071;-83
2021/05/05 08:27:29;;;;;;;;;;;;;;;18.92;46.42;94198.25;2982376;39;20371;-82
2021/05/05 08:29:32;;;;;;;5.93;3.33;;;;;;;19.17;45.59;94195.50;2976459;39;19928;-82
2021/05/05 08:31:33;;;;;;;7.78;3.17;;;;;;;19.63;43.86;94188.72;2977600;39;20067;-83
2021/05/05 08:33:35;;;;;;;15.30;3.45;;;;;;;19.85;42.89;94183.69;2976114;39;20048;-83
2021/05/05 08:35:37;;;;;;;7.80;3.13;;;;;;;19.95;42.52;94186.59;2971710;40;20047;-81
2021/05/05 08:37:38;;;;;;;6.07;3.40;;;;;;;19.87;43.02;94178.97;2974390;39;20053;-81
2021/05/05 08:39:40;;;;;;;5.70;3.38;;;;;;;19.63;43.68;94189.50;2969723;40;20308;-82
2021/05/05 08:41:41;;;;;;;5.57;3.40;;;;;;;19.60;43.27;94191.84;2974204;39;20076;-83
2021/05/05 08:43:43;;;;;;;5.15;3.00;;;;;;;19.76;42.74;94209.00;2971290;40;20071;-83
2021/05/05 08:45:44;;;;;;;5.55;3.60;;;;;;;19.33;43.65;94194.03;2972968;39;20060;-84
2021/05/05 08:47:47;;;;;;;5.50;3.03;;;;;;;19.31;43.83;94193.47;2968625;39;20318;-85
2021/05/05 08:49:49;;;;;;;6.70;3.60;;;;;;;19.34;44.82;94190.38;2977109;39;20052;-85
2021/05/05 08:51:50;;;;;;;10.10;3.35;;;;;;;19.48;43.86;94191.78;2970448;40;20060;-84
2021/05/05 08:53:53;;;;;;;8.85;3.17;;;;;;;19.25;43.69;94200.47;2977529;39;20063;-84
2021/05/05 08:55:54;;;;;;;4.47;3.13;;;;;;;18.80;44.84;94190.25;2975593;39;20285;-82
2021/05/05 08:57:56;;;;;;;6.45;3.47;;;;;;;18.93;44.46;94194.56;2971697;40;20325;-82
2021/05/05 08:59:58;;;;;;;7.50;3.63;;;;;;;19.09;45.32;94193.16;2984191;39;20066;-84
2021/05/05 09:02:00;;;;;;;7.28;3.50;;;;;;;19.23;44.46;94194.59;2983712;39;20091;-81
2021/05/05 09:04:03;;;;;;;5.57;4.03;;;;;;;19.47;44.34;94192.84;2970717;39;20132;-81
2021/05/05 09:06:05;;;;;;;4.45;3.10;;;;;;;19.67;43.70;94192.53;2975401;39;20056;-82
2021/05/05 09:08:10;;;;;;;5.72;3.00;;;;;;;19.58;43.40;94186.75;2964362;40;20060;-82
2021/05/05 09:10:17;;;;;;;6.05;3.22;;;;;;;19.80;43.14;94180.91;2976661;39;20150;-84
2021/05/05 09:12:24;;;;;;;6.40;3.42;;;;;;;19.59;42.94;94185.69;2973193;39;20785;-81
2021/05/05 09:14:27;;;;;;;9.93;3.20;;;;;;;19.21;43.77;94181.53;2974959;39;20136;-85
2021/05/05 09:16:30;;;;;;;6.60;3.97;;;;;;;19.05;44.14;94187.47;2971157;39;20052;-84
2021/05/05 09:18:49;;;;;;;;;;;;;;;19.07;43.60;94171.31;2970359;40;20406;-82
2021/05/05 09:20:50;;;;;;;6.10;2.90;;;;;;;19.01;43.68;94167.72;2975904;39;19972;-86
2021/05/05 09:22:57;;;;;;;5.30;2.70;;;;;;;19.09;44.00;94179.88;2972768;39;20066;-72
2021/05/05 09:24:58;;;;;;;5.15;2.63;;;;;;;19.32;44.16;94187.13;2966523;40;20098;-72
2021/05/05 09:27:03;;;;;;;7.90;4.03;;;;;;;19.53;43.31;94183.97;2967149;39;20097;-75
2021/05/05 09:29:04;;;;;;;5.53;3.25;;;;;;;19.73;42.80;94189.00;2970954;39;20040;-71
2021/05/05 09:31:10;;;;;;;7.35;4.00;;;;;;;19.73;43.30;94182.88;2971523;39;20068;-73
2021/05/05 09:33:45;;;;;;;4.88;3.53;;;;;;;19.73;44.03;94181.03;2973014;39;20080;-71
2021/05/05 09:35:52;;;;;;;7.57;3.15;;;;;;;19.76;44.16;94185.06;2962995;39;20118;-72
2021/05/05 09:37:59;;;;;;;7.50;3.45;;;;;;;19.67;43.71;94173.13;2965502;40;20068;-71
2021/05/05 09:40:05;;;;;;;6.15;3.30;;;;;;;19.65;43.77;94173.34;2973784;39;20052;-70
2021/05/05 09:42:18;;;;;;;7.57;3.58;;;;;;;19.65;43.73;94174.16;2971054;39;20117;-72
2021/05/05 09:44:21;;;;;;;7.25;3.85;;;;;;;19.55;43.29;94176.59;2971385;39;20075;-71